Time;durP1;ratioP1;P1;durP2;ratioP2;P2;SDS_P1;SDS_P2;PMS_P1;PMS_P2;Temp;Humidity;BMP_temperature;BMP_pressure;BME280_temperature;BME280_humidity;BME280_pressure;Samples;Min_cycle;Max_cycle;Signal;HPM_P1;HPM_P2
2023/12/14 00:01:54;;;;;;;11.18;4.37;;;;;;;10.55;79.06;96660.34;4383808;32;20177;-79
2023/12/14 00:04:21;;;;;;;12.80;4.43;;;;;;;10.33;80.43;96663.47;4397204;32;20075;-79
2023/12/14 00:06:48;;;;;;;11.80;4.55;;;;;;;10.07;81.14;96655.59;4397564;32;20394;-79
2023/12/14 00:09:15;;;;;;;12.80;5.03;;;;;;;10.45;80.46;96659.28;4398075;32;20062;-79
2023/12/14 00:11:42;;;;;;;14.35;5.30;;;;;;;10.55;79.49;96661.16;4397373;32;20104;-80
2023/12/14 00:14:09;;;;;;;13.00;5.15;;;;;;;10.84;77.30;96658.41;4397662;32;20086;-79
2023/12/14 00:16:37;;;;;;;14.75;5.90;;;;;;;10.60;78.33;96666.00;4397224;32;20631;-79
2023/12/14 00:19:04;;;;;;;13.38;6.05;;;;;;;10.30;79.64;96668.78;4397032;32;20066;-79
2023/12/14 00:21:31;;;;;;;15.27;5.97;;;;;;;10.23;80.92;96680.44;4397639;32;20112;-79
2023/12/14 00:23:58;;;;;;;16.35;6.40;;;;;;;10.27;79.49;96699.94;4397690;32;20059;-80
2023/12/14 00:26:24;;;;;;;24.12;7.25;;;;;;;10.06;81.96;96709.78;4397183;32;20133;-79
2023/12/14 00:28:51;;;;;;;19.15;7.20;;;;;;;9.89;84.35;96712.56;4397186;32;20112;-79
2023/12/14 00:31:27;;;;;;;23.23;8.10;;;;;;;9.89;85.07;96726.31;4396603;32;20103;-79
2023/12/14 00:33:54;;;;;;;26.85;8.85;;;;;;;9.91;85.79;96727.03;4396220;32;20101;-80
2023/12/14 00:36:21;;;;;;;62.08;11.57;;;;;;;9.87;86.54;96741.00;4396704;32;20152;-79
2023/12/14 00:38:48;;;;;;;176.95;16.12;;;;;;;9.53;88.29;96719.03;4396672;32;20156;-79
2023/12/14 00:41:15;;;;;;;145.68;15.10;;;;;;;10.14;86.23;96717.88;4396270;32;20098;-79
2023/12/14 00:43:42;;;;;;;187.80;16.98;;;;;;;10.14;85.39;96705.81;4396518;32;20086;-79
2023/12/14 00:46:11;;;;;;;137.35;15.25;;;;;;;9.78;88.14;96700.34;4396603;32;20083;-79
2023/12/14 00:48:38;;;;;;;36.42;10.60;;;;;;;10.09;86.37;96700.13;4396381;32;20117;-79
2023/12/14 00:51:05;;;;;;;123.70;13.13;;;;;;;10.13;84.70;96696.44;4396603;32;20094;-79
2023/12/14 00:53:32;;;;;;;47.83;10.55;;;;;;;10.49;82.08;96697.66;4396376;32;20091;-79
2023/12/14 00:55:59;;;;;;;27.48;9.25;;;;;;;10.49;81.89;96700.22;4396779;32;20149;-79
2023/12/14 00:58:26;;;;;;;19.55;7.90;;;;;;;10.44;81.51;96702.28;4397060;32;20093;-79
2023/12/14 01:00:54;;;;;;;19.35;8.48;;;;;;;11.04;77.56;96704.38;4396883;32;20098;-80
2023/12/14 01:03:21;;;;;;;118.55;13.55;;;;;;;10.92;79.37;96695.69;4397696;32;20087;-80
2023/12/14 01:05:48;;;;;;;59.08;9.90;;;;;;;11.15;77.31;96707.09;4397672;32;20083;-80
2023/12/14 01:08:16;;;;;;;21.48;8.32;;;;;;;11.25;75.37;96712.47;4396476;32;20153;-80
2023/12/14 01:10:43;;;;;;;17.37;7.80;;;;;;;11.62;74.80;96721.16;4397379;32;20443;-80
2023/12/14 01:13:10;;;;;;;18.80;7.78;;;;;;;11.92;73.31;96715.69;4396938;32;20105;-80
2023/12/14 01:15:37;;;;;;;16.35;6.85;;;;;;;12.45;70.37;96711.09;4396495;32;20105;-80
2023/12/14 01:18:04;;;;;;;15.90;6.72;;;;;;;12.49;70.38;96722.06;4396676;32;20121;-80
2023/12/14 01:20:31;;;;;;;17.23;7.10;;;;;;;12.24;71.29;96725.56;4383186;32;20145;-80
2023/12/14 01:22:58;;;;;;;16.52;7.12;;;;;;;12.05;72.33;96737.16;4382116;32;20149;-80
2023/12/14 01:25:26;;;;;;;16.55;7.70;;;;;;;12.09;72.69;96738.59;4395824;32;20161;-80
2023/12/14 01:27:53;;;;;;;18.70;7.80;;;;;;;12.29;72.58;96747.56;4395919;32;20106;-80
2023/12/14 01:30:20;;;;;;;16.50;7.57;;;;;;;12.08;72.69;96749.06;4395483;32;20107;-80
2023/12/14 01:32:47;;;;;;;15.13;6.47;;;;;;;12.09;72.70;96746.34;4395584;32;20087;-79
2023/12/14 01:35:14;;;;;;;15.35;7.25;;;;;;;12.30;71.94;96746.63;4395684;32;20113;-80
2023/12/14 01:37:41;;;;;;;16.37;6.90;;;;;;;11.41;75.59;96749.28;4395367;32;20121;-80
2023/12/14 01:40:08;;;;;;;16.17;7.28;;;;;;;12.02;72.99;96750.31;4395243;32;20098;-80
2023/12/14 01:42:35;;;;;;;13.98;5.97;;;;;;;12.02;72.44;96749.50;4395230;32;20098;-80
2023/12/14 01:45:03;;;;;;;14.87;6.75;;;;;;;12.13;71.53;96745.22;4395354;32;20132;-80
2023/12/14 01:47:30;;;;;;;14.43;6.40;;;;;;;12.08;71.99;96749.06;4382073;32;20106;-80
2023/12/14 01:49:57;;;;;;;14.38;6.12;;;;;;;12.29;70.80;96749.31;4395264;32;20082;-80
2023/12/14 01:52:24;;;;;;;16.25;6.80;;;;;;;12.30;69.81;96740.63;4395677;32;20556;-80
2023/12/14 01:54:51;;;;;;;15.23;7.05;;;;;;;11.50;72.84;96735.75;4395880;32;20090;-80
2023/12/14 01:57:18;;;;;;;15.73;7.75;;;;;;;11.64;72.54;96739.16;4396103;32;20090;-80
2023/12/14 01:59:45;;;;;;;16.95;7.50;;;;;;;10.87;74.72;96731.31;4396367;32;20179;-80
2023/12/14 02:02:12;;;;;;;17.37;7.62;;;;;;;11.24;74.60;96732.31;4396580;32;20144;-80
2023/12/14 02:04:39;;;;;;;16.62;6.72;;;;;;;11.66;73.37;96738.09;4389872;32;20091;-80
2023/12/14 02:07:06;;;;;;;17.45;7.35;;;;;;;12.04;71.60;96735.53;4396511;32;20718;-80
2023/12/14 02:09:33;;;;;;;20.23;8.07;;;;;;;12.49;69.32;96742.75;4396440;32;20079;-80
2023/12/14 02:12:00;;;;;;;18.15;7.62;;;;;;;12.24;69.58;96741.06;4395605;32;20071;-80
2023/12/14 02:14:27;;;;;;;18.00;8.23;;;;;;;12.00;70.93;96746.16;4395982;32;20077;-80
2023/12/14 02:16:54;;;;;;;15.82;7.45;;;;;;;11.47;73.31;96745.44;4395454;32;20438;-80
2023/12/14 02:19:21;;;;;;;17.00;7.25;;;;;;;11.67;72.92;96739.75;4396023;32;20454;-80
2023/12/14 02:21:48;;;;;;;16.80;7.55;;;;;;;11.57;73.63;96743.88;4384229;32;20438;-80
2023/12/14 02:24:15;;;;;;;18.10;7.93;;;;;;;11.48;73.82;96742.78;4398063;32;20091;-80
2023/12/14 02:26:42;;;;;;;18.75;8.38;;;;;;;11.35;74.49;96743.66;4398081;32;20098;-80
2023/12/14 02:29:27;;;;;;;18.60;8.60;;;;;;;11.30;75.93;96736.25;4398901;32;20150;-80
2023/12/14 02:31:54;;;;;;;18.23;8.23;;;;;;;11.07;76.67;96730.03;4397906;32;20578;-80
2023/12/14 02:34:21;;;;;;;19.40;8.02;;;;;;;10.34;80.92;96727.81;4398380;32;20082;-80
2023/12/14 02:36:48;;;;;;;19.40;8.07;;;;;;;10.98;78.91;96726.28;4397868;32;20567;-80
2023/12/14 02:39:15;;;;;;;22.33;8.27;;;;;;;10.71;80.55;96731.47;4397697;32;20166;-80
2023/12/14 02:41:42;;;;;;;22.62;9.00;;;;;;;11.03;78.30;96725.97;4384379;32;20125;-80
2023/12/14 02:44:09;;;;;;;20.45;9.38;;;;;;;10.58;81.08;96722.84;4397949;32;20078;-80
2023/12/14 02:46:36;;;;;;;22.95;8.82;;;;;;;10.68;80.89;96728.25;4397450;32;20063;-80
2023/12/14 02:49:03;;;;;;;25.12;9.52;;;;;;;10.35;82.81;96734.62;4397643;32;20161;-80
2023/12/14 02:51:30;;;;;;;21.05;8.45;;;;;;;10.89;79.95;96737.19;4397577;32;20495;-79
2023/12/14 02:53:57;;;;;;;28.95;10.15;;;;;;;10.39;81.78;96741.25;4397457;32;20105;-80
2023/12/14 02:56:24;;;;;;;22.23;9.65;;;;;;;10.06;83.72;96748.44;4397314;32;20141;-80
2023/12/14 02:58:53;;;;;;;23.65;9.60;;;;;;;9.63;86.90;96750.22;4397390;32;20090;-80
2023/12/14 03:01:23;;;;;;;21.30;9.95;;;;;;;9.80;86.63;96760.34;4396812;32;20086;-80
2023/12/14 03:03:50;;;;;;;21.65;8.90;;;;;;;9.69;87.81;96765.31;4383638;32;20078;-80
2023/12/14 03:06:17;;;;;;;25.25;10.30;;;;;;;9.71;87.99;96776.34;4397269;32;20154;-80
2023/12/14 03:08:45;;;;;;;23.67;10.48;;;;;;;9.88;86.73;96780.47;4397126;32;20070;-79
2023/12/14 03:11:24;;;;;;;21.75;9.80;;;;;;;9.65;87.39;96784.44;4396896;32;20091;-80
2023/12/14 03:13:52;;;;;;;25.15;11.48;;;;;;;9.87;87.82;96782.22;4382946;32;20055;-79
2023/12/14 03:16:19;;;;;;;25.20;10.98;;;;;;;9.58;89.30;96783.97;4396838;32;20095;-79
2023/12/14 03:18:46;;;;;;;24.60;10.75;;;;;;;9.65;89.45;96792.16;4396891;32;20152;-79
2023/12/14 03:21:13;;;;;;;28.48;10.60;;;;;;;9.72;88.97;96796.84;4396051;32;20074;-79
2023/12/14 03:23:40;;;;;;;28.33;11.68;;;;;;;9.62;89.34;96800.06;4396283;32;20145;-79
2023/12/14 03:26:07;;;;;;;26.50;11.80;;;;;;;9.66;89.04;96804.94;4396342;32;20118;-80
2023/12/14 03:28:34;;;;;;;28.10;11.68;;;;;;;9.49;90.35;96800.78;4395824;32;20114;-79
2023/12/14 03:31:02;;;;;;;27.65;11.65;;;;;;;9.52;90.77;96807.50;4396516;32;20110;-79
2023/12/14 03:33:29;;;;;;;26.33;11.00;;;;;;;9.05;93.64;96805.91;4396398;32;20070;-79
2023/12/14 03:35:56;;;;;;;32.20;12.20;;;;;;;9.14;92.84;96807.94;4396344;32;20114;-79
2023/12/14 03:38:23;;;;;;;29.42;12.18;;;;;;;9.38;92.25;96810.88;4395965;32;20153;-79
2023/12/14 03:40:50;;;;;;;28.60;12.00;;;;;;;9.36;93.14;96819.59;4396702;32;20087;-79
2023/12/14 03:43:17;;;;;;;28.67;12.00;;;;;;;9.32;93.06;96818.94;4396112;32;20105;-79
2023/12/14 03:45:44;;;;;;;27.90;13.13;;;;;;;9.35;92.90;96821.31;4383235;32;20110;-80
2023/12/14 03:48:11;;;;;;;27.13;12.15;;;;;;;9.49;91.58;96825.72;4396615;32;20094;-79
2023/12/14 03:50:38;;;;;;;28.12;11.10;;;;;;;9.75;90.00;96825.00;4396066;32;20159;-79
2023/12/14 03:53:05;;;;;;;27.35;12.43;;;;;;;9.71;89.26;96822.72;4396514;32;20478;-80
2023/12/14 03:55:33;;;;;;;27.05;11.88;;;;;;;9.59;90.91;96833.72;4396115;32;20078;-80
2023/12/14 03:58:00;;;;;;;29.60;13.43;;;;;;;9.74;90.01;96836.22;4396358;32;20114;-80
2023/12/14 04:00:27;;;;;;;28.20;13.25;;;;;;;9.93;88.43;96840.31;4396488;32;20485;-80
2023/12/14 04:02:54;;;;;;;31.52;14.10;;;;;;;9.91;88.60;96834.41;4396190;32;20090;-80
2023/12/14 04:05:21;;;;;;;27.95;12.73;;;;;;;9.89;87.41;96839.66;4396319;32;20098;-80
2023/12/14 04:07:48;;;;;;;31.15;13.30;;;;;;;9.89;88.32;96841.38;4396589;32;20066;-80
2023/12/14 04:10:15;;;;;;;28.80;12.85;;;;;;;9.97;86.08;96849.50;4382955;32;20117;-79
2023/12/14 04:12:42;;;;;;;31.17;12.63;;;;;;;9.93;85.98;96841.12;4397003;32;20059;-80
2023/12/14 04:15:10;;;;;;;30.52;13.02;;;;;;;10.27;85.59;96859.75;4396990;32;20116;-80
2023/12/14 04:17:37;;;;;;;29.30;12.90;;;;;;;10.24;85.16;96857.38;4396329;32;20355;-80
2023/12/14 04:20:06;;;;;;;25.17;11.68;;;;;;;10.30;84.36;96862.16;4396532;32;20086;-80
2023/12/14 04:22:33;;;;;;;27.20;11.48;;;;;;;10.15;84.91;96863.88;4395502;32;20402;-80
2023/12/14 04:25:01;;;;;;;27.77;12.35;;;;;;;10.27;84.31;96872.66;4396046;32;20098;-80
2023/12/14 04:27:29;;;;;;;33.80;13.95;;;;;;;9.72;88.29;96875.87;4396379;32;20141;-80
2023/12/14 04:29:57;;;;;;;32.08;14.05;;;;;;;9.78;88.18;96872.94;4395938;32;20082;-80
2023/12/14 04:32:24;;;;;;;33.40;14.43;;;;;;;9.28;91.51;96864.62;4395713;32;20127;-79
2023/12/14 04:34:51;;;;;;;37.58;15.25;;;;;;;9.64;90.79;96865.19;4396129;32;20132;-80
2023/12/14 04:37:18;;;;;;;40.15;16.70;;;;;;;9.16;92.78;96872.22;4395962;32;20110;-80
2023/12/14 04:39:45;;;;;;;41.17;16.37;;;;;;;9.52;90.61;96870.13;4395456;32;20145;-80
2023/12/14 04:42:12;;;;;;;36.75;16.73;;;;;;;9.46;91.49;96867.91;4396084;32;20138;-80
2023/12/14 04:44:39;;;;;;;38.38;16.05;;;;;;;9.30;92.19;96874.00;4395418;32;20193;-80
2023/12/14 04:47:06;;;;;;;36.97;15.48;;;;;;;8.90;96.13;96873.63;4395669;32;20422;-80
2023/12/14 04:49:33;;;;;;;36.45;15.45;;;;;;;8.94;93.51;96868.25;4396489;32;20136;-80
2023/12/14 04:52:00;;;;;;;36.08;14.55;;;;;;;9.59;90.45;96874.94;4394862;32;20075;-80
2023/12/14 04:54:27;;;;;;;36.08;15.82;;;;;;;9.35;92.21;96879.72;4396418;32;20069;-80
2023/12/14 04:56:54;;;;;;;31.90;14.60;;;;;;;9.89;88.75;96882.59;4396568;32;20112;-79
2023/12/14 04:59:21;;;;;;;39.53;16.27;;;;;;;9.98;87.82;96887.22;4396320;32;20105;-80
2023/12/14 05:01:48;;;;;;;34.53;14.93;;;;;;;9.49;91.39;96896.06;4396345;32;20130;-80
2023/12/14 05:04:15;;;;;;;36.17;15.85;;;;;;;9.41;90.41;96897.41;4396629;32;20098;-80
2023/12/14 05:06:42;;;;;;;36.63;15.60;;;;;;;9.49;90.61;96895.22;4395737;32;20353;-80
2023/12/14 05:09:11;;;;;;;32.40;14.32;;;;;;;10.30;85.68;96899.06;4396046;32;20059;-80
2023/12/14 05:11:40;;;;;;;33.63;15.18;;;;;;;9.85;87.37;96902.56;4395942;32;20663;-79
2023/12/14 05:14:07;;;;;;;37.53;16.50;;;;;;;9.97;87.51;96904.44;4382381;32;20120;-80
2023/12/14 05:16:34;;;;;;;32.45;14.30;;;;;;;9.93;87.75;96915.03;4396117;32;20116;-80
2023/12/14 05:19:01;;;;;;;34.05;14.80;;;;;;;10.14;86.94;96913.78;4395793;32;20453;-79
2023/12/14 05:21:28;;;;;;;34.30;15.00;;;;;;;9.93;87.45;96915.84;4395363;32;20078;-80
2023/12/14 05:23:55;;;;;;;38.97;16.23;;;;;;;9.52;89.77;96913.91;4395436;32;20158;-79
2023/12/14 05:26:22;;;;;;;36.58;15.88;;;;;;;9.45;90.63;96914.31;4395109;32;20090;-79
2023/12/14 05:28:49;;;;;;;40.22;15.50;;;;;;;9.42;91.53;96924.78;4395351;32;20090;-79
2023/12/14 05:31:16;;;;;;;38.10;15.90;;;;;;;9.69;89.87;96932.72;4395383;32;20073;-79
2023/12/14 05:33:43;;;;;;;37.05;16.52;;;;;;;9.53;90.26;96941.31;4395027;32;20090;-80
2023/12/14 05:36:10;;;;;;;38.10;15.88;;;;;;;9.82;88.88;96949.12;4394838;32;20158;-79
2023/12/14 05:38:41;;;;;;;40.88;17.00;;;;;;;9.71;89.67;96949.75;4394742;32;20152;-79
2023/12/14 05:41:08;;;;;;;41.67;16.60;;;;;;;9.34;91.67;96948.38;4381403;32;20086;-80
2023/12/14 05:43:36;;;;;;;37.28;14.30;;;;;;;9.26;92.28;96950.56;4395184;32;20492;-80
2023/12/14 05:46:03;;;;;;;33.60;14.82;;;;;;;9.34;92.20;96957.84;4394607;32;20098;-80
2023/12/14 05:48:30;;;;;;;39.38;14.57;;;;;;;9.20;93.25;96967.16;4394193;32;20497;-79
2023/12/14 05:51:01;;;;;;;36.22;15.10;;;;;;;8.95;94.92;96970.22;4394741;32;20074;-79
2023/12/14 05:53:28;;;;;;;35.38;15.02;;;;;;;8.99;95.80;96971.72;4381297;32;20209;-80
2023/12/14 05:55:55;;;;;;;34.50;14.85;;;;;;;9.21;94.26;96983.44;4381589;32;20556;-80
2023/12/14 05:58:22;;;;;;;32.90;14.85;;;;;;;9.22;94.05;96988.50;4396833;32;20086;-80
2023/12/14 06:00:49;;;;;;;32.95;15.25;;;;;;;9.02;94.58;96991.31;4396593;32;20098;-79
2023/12/14 06:03:16;;;;;;;35.45;15.15;;;;;;;9.49;92.51;97003.38;4395924;32;20164;-79
2023/12/14 06:05:43;;;;;;;39.45;15.88;;;;;;;9.19;93.00;96998.13;4397086;32;20102;-79
2023/12/14 06:08:10;;;;;;;33.83;14.48;;;;;;;9.51;91.71;96997.22;4398037;32;20098;-80
2023/12/14 06:10:37;;;;;;;33.55;14.80;;;;;;;9.72;90.36;97002.91;4397460;32;20105;-80
2023/12/14 06:13:04;;;;;;;34.30;15.23;;;;;;;9.26;92.81;96999.47;4383852;32;20098;-79
2023/12/14 06:15:31;;;;;;;35.35;13.80;;;;;;;9.27;92.69;97001.97;4397885;32;20110;-79
2023/12/14 06:17:59;;;;;;;33.20;15.27;;;;;;;8.94;94.93;97008.91;4406660;32;20087;-76
2023/12/14 06:20:26;;;;;;;33.20;14.82;;;;;;;9.09;93.98;97004.69;4396352;32;20106;-75
2023/12/14 06:22:53;;;;;;;31.42;14.43;;;;;;;9.23;92.78;97009.91;4395707;32;20148;-72
2023/12/14 06:25:20;;;;;;;31.37;14.02;;;;;;;9.53;91.25;97026.28;4395356;32;20487;-75
2023/12/14 06:27:47;;;;;;;31.23;14.52;;;;;;;9.02;94.35;97022.19;4395674;32;20405;-74
2023/12/14 06:30:14;;;;;;;32.17;13.70;;;;;;;9.02;93.25;97021.34;4395430;32;20074;-73
2023/12/14 06:32:41;;;;;;;32.10;13.98;;;;;;;9.53;91.00;97025.44;4395484;32;20098;-74
2023/12/14 06:35:08;;;;;;;30.15;13.60;;;;;;;9.34;91.79;97029.94;4395658;32;20102;-74
2023/12/14 06:37:36;;;;;;;31.55;14.90;;;;;;;9.46;91.66;97042.13;4395397;32;20417;-74
2023/12/14 06:40:03;;;;;;;33.72;14.75;;;;;;;9.10;92.45;97044.94;4395238;32;20121;-74
2023/12/14 06:42:30;;;;;;;30.48;14.43;;;;;;;9.56;89.81;97048.44;4395601;32;20099;-74
2023/12/14 06:44:58;;;;;;;33.53;15.73;;;;;;;9.32;90.44;97060.06;4395176;32;20539;-75
2023/12/14 06:47:25;;;;;;;28.70;14.15;;;;;;;9.95;88.40;97058.31;4381897;32;20109;-76
2023/12/14 06:49:52;;;;;;;30.00;13.98;;;;;;;10.32;85.94;97062.25;4382087;32;20399;-80
2023/12/14 06:52:19;;;;;;;28.83;14.15;;;;;;;10.48;83.74;97067.34;4398820;32;20058;-78
2023/12/14 06:54:46;;;;;;;32.47;15.15;;;;;;;10.24;85.36;97076.50;4395516;32;20129;-83
2023/12/14 06:57:13;;;;;;;30.37;14.70;;;;;;;10.73;82.07;97074.47;4395530;32;20459;-83
2023/12/14 06:59:40;;;;;;;30.58;14.43;;;;;;;10.44;84.58;97081.34;4395467;32;20101;-83
2023/12/14 07:02:07;;;;;;;32.78;14.35;;;;;;;10.27;84.33;97084.88;4402528;32;20153;-82
2023/12/14 07:04:34;;;;;;;30.48;13.13;;;;;;;11.23;79.25;97080.97;4400545;32;20248;-81
2023/12/14 07:07:01;;;;;;;28.80;14.45;;;;;;;11.18;79.72;97083.00;4396732;32;20114;-78
2023/12/14 07:09:28;;;;;;;28.95;13.60;;;;;;;11.55;78.63;97100.50;4395522;32;20101;-77
2023/12/14 07:11:55;;;;;;;26.00;12.88;;;;;;;11.86;75.93;97102.03;4394461;32;20094;-81
2023/12/14 07:14:23;;;;;;;24.27;12.13;;;;;;;11.78;76.77;97109.41;4402568;32;20054;-79
2023/12/14 07:16:52;;;;;;;28.48;13.00;;;;;;;12.26;73.26;97109.84;4401347;32;20150;-79
2023/12/14 07:19:19;;;;;;;29.60;12.75;;;;;;;11.96;74.18;97122.13;4389263;32;20144;-79
2023/12/14 07:21:46;;;;;;;27.37;13.30;;;;;;;11.84;74.55;97124.56;4401798;32;20067;-79
2023/12/14 07:24:13;;;;;;;26.87;12.68;;;;;;;11.34;76.93;97122.47;4402007;32;20113;-79
2023/12/14 07:26:40;;;;;;;28.95;13.27;;;;;;;12.09;73.81;97130.78;4401295;32;20838;-79
2023/12/14 07:29:07;;;;;;;33.05;15.38;;;;;;;11.61;75.33;97129.47;4399848;32;20081;-79
2023/12/14 07:31:34;;;;;;;29.60;14.68;;;;;;;11.07;76.73;97132.72;4400374;32;20149;-78
2023/12/14 07:34:01;;;;;;;33.53;15.68;;;;;;;11.69;75.25;97129.81;4400782;32;20190;-78
2023/12/14 07:36:28;;;;;;;29.02;13.05;;;;;;;12.06;72.78;97128.37;4399151;32;20067;-79
2023/12/14 07:38:55;;;;;;;26.50;12.88;;;;;;;11.76;75.69;97137.09;4396835;32;20079;-79
2023/12/14 07:41:26;;;;;;;29.10;14.00;;;;;;;11.46;75.23;97139.78;4394810;32;20456;-77
2023/12/14 07:43:53;;;;;;;27.48;13.35;;;;;;;11.76;73.95;97141.44;4395257;32;20098;-77
2023/12/14 07:46:21;;;;;;;26.92;12.30;;;;;;;12.24;72.32;97150.50;4395977;32;20078;-77
2023/12/14 07:48:48;;;;;;;27.17;12.82;;;;;;;12.07;73.69;97148.16;4395708;32;20141;-77
2023/12/14 07:51:15;;;;;;;28.45;13.20;;;;;;;11.92;73.85;97151.69;4387104;32;20125;-79
2023/12/14 07:53:42;;;;;;;26.95;13.20;;;;;;;11.74;74.98;97153.62;4401242;32;20124;-78
2023/12/14 07:56:11;;;;;;;26.30;12.80;;;;;;;12.45;71.70;97161.25;4401085;32;20115;-79
2023/12/14 07:58:38;;;;;;;28.45;13.65;;;;;;;12.09;73.00;97172.16;4401393;32;20109;-79
2023/12/14 08:01:06;;;;;;;25.62;12.52;;;;;;;12.33;73.45;97172.34;4402672;32;20152;-80
2023/12/14 08:03:33;;;;;;;26.67;13.20;;;;;;;12.59;71.29;97173.28;4398116;32;20152;-80
2023/12/14 08:06:00;;;;;;;26.65;12.80;;;;;;;12.89;69.76;97168.69;4394968;32;20579;-80
2023/12/14 08:08:27;;;;;;;27.17;13.48;;;;;;;12.71;70.09;97172.47;4393351;32;20137;-80
2023/12/14 08:10:54;;;;;;;29.10;13.85;;;;;;;12.51;71.27;97183.28;4395036;32;20116;-80
2023/12/14 08:13:21;;;;;;;28.60;13.15;;;;;;;12.20;72.62;97180.06;4394769;32;20132;-81
2023/12/14 08:15:48;;;;;;;28.38;13.43;;;;;;;12.10;72.97;97181.56;4394101;32;20108;-82
2023/12/14 08:18:14;;;;;;;27.85;13.57;;;;;;;11.33;77.65;97177.62;4395798;32;20078;-82
2023/12/14 08:20:42;;;;;;;26.77;13.30;;;;;;;11.24;76.61;97183.31;4395458;32;20145;-80
2023/12/14 08:23:08;;;;;;;26.25;12.93;;;;;;;11.45;77.55;97176.88;4396959;32;20098;-80
2023/12/14 08:25:35;;;;;;;28.45;12.90;;;;;;;11.81;75.81;97188.56;4397541;32;20903;-81
2023/12/14 08:28:02;;;;;;;24.15;12.73;;;;;;;11.66;77.09;97192.03;4397549;32;20086;-81
2023/12/14 08:30:31;;;;;;;23.65;11.68;;;;;;;12.06;75.58;97199.03;4396249;32;20162;-80
2023/12/14 08:32:58;;;;;;;24.37;11.80;;;;;;;11.74;75.80;97200.97;4398349;32;20161;-78
2023/12/14 08:35:25;;;;;;;23.25;11.63;;;;;;;11.30;77.60;97206.22;4395755;32;20091;-78
2023/12/14 08:37:53;;;;;;;27.67;12.93;;;;;;;11.34;77.54;97209.44;4396798;32;20102;-77
2023/12/14 08:40:20;;;;;;;25.45;12.27;;;;;;;11.12;79.52;97213.28;4398212;32;20098;-79
2023/12/14 08:42:47;;;;;;;25.30;11.65;;;;;;;11.10;80.44;97217.72;4396847;32;20460;-79
2023/12/14 08:45:15;;;;;;;21.40;10.75;;;;;;;11.75;76.60;97222.47;4395147;32;20109;-79
2023/12/14 08:47:42;;;;;;;23.38;11.98;;;;;;;11.33;77.35;97229.28;4397266;32;20150;-79
2023/12/14 08:50:10;;;;;;;28.70;11.98;;;;;;;10.90;79.17;97229.19;4396728;32;20162;-79
2023/12/14 08:52:37;;;;;;;28.10;12.50;;;;;;;10.50;82.68;97238.31;4397578;32;20764;-79
2023/12/14 08:55:05;;;;;;;25.35;12.32;;;;;;;10.64;82.17;97243.56;4395834;32;20146;-80
2023/12/14 08:57:32;;;;;;;23.90;10.95;;;;;;;10.84;80.33;97239.84;4381813;32;20160;-79
2023/12/14 08:59:59;;;;;;;24.20;11.10;;;;;;;10.98;79.76;97244.22;4395135;32;20103;-79
2023/12/14 09:02:26;;;;;;;25.37;10.88;;;;;;;11.22;77.96;97241.97;4394878;32;20090;-78
2023/12/14 09:04:54;;;;;;;21.65;11.07;;;;;;;10.78;79.50;97250.50;4396486;32;20144;-79
2023/12/14 09:07:21;;;;;;;26.42;11.38;;;;;;;11.07;78.37;97245.47;4398299;32;20745;-79
2023/12/14 09:09:48;;;;;;;20.90;10.88;;;;;;;10.93;78.89;97254.81;4395015;32;20098;-79
2023/12/14 09:12:15;;;;;;;22.25;10.52;;;;;;;10.71;79.88;97264.66;4394812;32;20162;-79
2023/12/14 09:14:42;;;;;;;21.73;10.85;;;;;;;11.02;79.43;97268.94;4394867;32;20191;-79
2023/12/14 09:17:09;;;;;;;21.02;10.75;;;;;;;11.21;78.34;97260.97;4395308;32;20086;-79
2023/12/14 09:19:36;;;;;;;20.85;9.77;;;;;;;11.48;77.47;97266.28;4394512;32;20153;-79
2023/12/14 09:22:03;;;;;;;20.15;9.60;;;;;;;11.87;74.32;97269.12;4394482;32;20119;-79
2023/12/14 09:24:30;;;;;;;23.00;10.80;;;;;;;11.67;74.61;97261.69;4394400;32;20588;-79
2023/12/14 09:26:57;;;;;;;19.50;9.18;;;;;;;11.02;77.81;97274.94;4394121;32;20102;-79
2023/12/14 09:29:24;;;;;;;21.50;9.90;;;;;;;11.67;75.67;97282.34;4394660;32;20153;-79
2023/12/14 09:31:51;;;;;;;22.13;9.98;;;;;;;11.60;76.29;97275.91;4395050;32;20542;-79
2023/12/14 09:34:18;;;;;;;19.30;9.07;;;;;;;11.66;75.19;97283.28;4397067;32;20102;-82
2023/12/14 09:36:46;;;;;;;17.37;8.70;;;;;;;11.29;77.09;97292.38;4394926;32;20075;-80
2023/12/14 09:39:13;;;;;;;18.40;9.15;;;;;;;11.53;75.22;97283.19;4395479;32;20468;-80
2023/12/14 09:41:40;;;;;;;18.83;8.27;;;;;;;11.22;77.59;97288.47;4399603;32;20102;-84
2023/12/14 09:44:07;;;;;;;18.55;8.68;;;;;;;11.22;79.40;97293.63;4399985;32;20125;-85
2023/12/14 09:46:37;;;;;;;17.35;8.60;;;;;;;11.29;77.83;97297.53;4396265;32;20074;-85
2023/12/14 09:49:05;;;;;;;18.60;8.27;;;;;;;12.01;73.90;97301.06;4394434;32;20090;-83
2023/12/14 09:51:35;;;;;;;18.48;8.73;;;;;;;10.75;78.79;97298.88;4394861;32;20090;-83
2023/12/14 09:54:02;;;;;;;18.35;8.02;;;;;;;10.82;78.33;97305.34;4393922;32;20161;-81
2023/12/14 09:56:30;;;;;;;16.62;7.90;;;;;;;11.70;74.78;97302.87;4393921;32;20079;-81
2023/12/14 09:58:58;;;;;;;16.85;7.82;;;;;;;11.84;74.13;97310.66;4393768;32;20370;-82
2023/12/14 10:01:26;;;;;;;15.95;7.78;;;;;;;12.40;70.72;97308.16;4393591;32;20220;-80
2023/12/14 10:04:09;;;;;;;17.90;7.93;;;;;;;10.79;77.65;97297.78;4394038;32;20094;-81
2023/12/14 10:06:37;;;;;;;21.08;9.05;;;;;;;10.29;83.12;97296.22;4394518;32;20067;-81
2023/12/14 10:09:25;;;;;;;22.15;9.48;;;;;;;10.03;86.16;97300.16;4381848;32;20205;-80
2023/12/14 10:12:03;;;;;;;17.60;8.43;;;;;;;10.13;85.51;97301.31;4395811;32;20094;-82
2023/12/14 10:14:30;;;;;;;25.02;10.63;;;;;;;9.97;85.92;97305.59;4399100;32;20460;-81
2023/12/14 10:16:58;;;;;;;20.02;9.07;;;;;;;10.03;85.81;97313.84;4398381;32;20140;-82
2023/12/14 10:19:29;;;;;;;20.92;10.20;;;;;;;9.89;87.95;97320.63;4386321;32;20132;-82
2023/12/14 10:21:57;;;;;;;19.58;9.68;;;;;;;9.48;90.54;97324.41;4394259;32;20116;-81
2023/12/14 10:24:24;;;;;;;22.67;9.63;;;;;;;9.38;90.05;97318.03;4393757;32;20098;-82
2023/12/14 10:26:51;;;;;;;20.60;10.23;;;;;;;10.01;85.94;97323.41;4395627;32;20166;-82
2023/12/14 10:29:18;;;;;;;22.75;10.18;;;;;;;10.20;84.79;97320.69;4395624;32;20378;-82
2023/12/14 10:31:46;;;;;;;20.60;10.00;;;;;;;9.89;87.56;97331.78;4393505;32;20176;-82
2023/12/14 10:34:13;;;;;;;21.48;9.73;;;;;;;9.81;86.72;97326.19;4395280;32;20885;-82
2023/12/14 10:36:40;;;;;;;21.30;10.57;;;;;;;9.80;86.69;97335.66;4395204;32;20109;-79
2023/12/14 10:39:08;;;;;;;21.30;10.60;;;;;;;9.64;87.17;97331.34;4387953;32;20076;-80
2023/12/14 10:41:36;;;;;;;22.48;10.65;;;;;;;9.53;90.05;97337.03;4392377;32;20113;-81
2023/12/14 10:44:03;;;;;;;20.55;10.10;;;;;;;9.47;90.89;97348.50;4393567;32;20089;-80
2023/12/14 10:46:56;;;;;;;20.92;10.82;;;;;;;9.32;91.19;97349.22;4388467;32;20078;-79
2023/12/14 10:49:26;;;;;;;20.02;10.27;;;;;;;10.05;87.35;97339.56;4386583;32;20067;-79
2023/12/14 10:51:55;;;;;;;21.05;9.30;;;;;;;10.43;84.80;97337.59;4386766;32;20112;-81
2023/12/14 10:54:23;;;;;;;20.48;10.60;;;;;;;10.27;84.59;97331.56;4386712;32;20074;-82
2023/12/14 10:56:56;;;;;;;19.17;9.88;;;;;;;9.67;89.12;97350.06;4385158;32;20149;-82
2023/12/14 10:59:26;;;;;;;20.33;9.23;;;;;;;9.54;88.71;97344.69;4389206;32;20234;-82
2023/12/14 11:01:53;;;;;;;18.80;9.35;;;;;;;9.24;90.93;97349.59;4387324;32;20055;-82
2023/12/14 11:04:27;;;;;;;21.08;9.05;;;;;;;9.62;89.17;97352.03;4385203;32;20069;-82
2023/12/14 11:06:57;;;;;;;18.12;8.23;;;;;;;10.00;86.55;97349.28;4387475;32;20190;-82
2023/12/14 11:09:24;;;;;;;18.45;8.35;;;;;;;9.89;86.93;97347.25;4389149;32;20099;-82
2023/12/14 11:11:58;;;;;;;20.85;9.15;;;;;;;9.97;85.88;97334.78;4389138;32;20069;-82
2023/12/14 11:14:26;;;;;;;17.73;8.73;;;;;;;9.71;88.40;97354.16;4387381;32;20078;-82
2023/12/14 11:17:03;;;;;;;17.05;7.37;;;;;;;10.09;85.51;97349.59;4382427;32;20079;-82
2023/12/14 11:19:30;;;;;;;19.35;8.68;;;;;;;9.64;87.48;97341.66;4378821;32;20174;-82
2023/12/14 11:22:14;;;;;;;18.60;7.93;;;;;;;9.26;89.98;97349.53;4381302;32;20087;-82
2023/12/14 11:24:43;;;;;;;17.60;8.50;;;;;;;9.48;87.74;97345.00;4380440;32;20101;-81
2023/12/14 11:27:12;;;;;;;17.73;7.82;;;;;;;9.05;91.10;97353.97;4378711;32;20149;-81